sensor_id;sensor_type;location;lat;lon;timestamp;P1;durP1;ratioP1;P2;durP2;ratioP2
8704;SDS011;4389;41.932;25.904;2023-09-19T00:02:20;5.63;;;4.37;;
8704;SDS011;4389;41.932;25.904;2023-09-19T00:04:49;8.73;;;4.80;;
8704;SDS011;4389;41.932;25.904;2023-09-19T00:07:17;7.73;;;5.10;;
8704;SDS011;4389;41.932;25.904;2023-09-19T00:09:44;7.30;;;5.23;;
8704;SDS011;4389;41.932;25.904;2023-09-19T00:12:11;5.20;;;4.60;;
8704;SDS011;4389;41.932;25.904;2023-09-19T00:14:38;8.07;;;5.03;;
8704;SDS011;4389;41.932;25.904;2023-09-19T00:17:05;4.70;;;4.20;;
8704;SDS011;4389;41.932;25.904;2023-09-19T00:19:33;5.83;;;4.17;;
8704;SDS011;4389;41.932;25.904;2023-09-19T00:22:02;4.43;;;4.03;;
8704;SDS011;4389;41.932;25.904;2023-09-19T00:24:29;4.87;;;3.83;;
8704;SDS011;4389;41.932;25.904;2023-09-19T00:26:56;6.47;;;4.37;;
8704;SDS011;4389;41.932;25.904;2023-09-19T00:29:24;6.13;;;4.37;;
8704;SDS011;4389;41.932;25.904;2023-09-19T00:31:54;5.93;;;4.43;;
8704;SDS011;4389;41.932;25.904;2023-09-19T00:34:22;8.30;;;4.20;;
8704;SDS011;4389;41.932;25.904;2023-09-19T00:36:50;5.60;;;4.77;;
8704;SDS011;4389;41.932;25.904;2023-09-19T00:39:19;6.73;;;5.00;;
8704;SDS011;4389;41.932;25.904;2023-09-19T00:41:47;6.23;;;4.43;;
8704;SDS011;4389;41.932;25.904;2023-09-19T00:44:14;6.53;;;4.90;;
8704;SDS011;4389;41.932;25.904;2023-09-19T00:46:42;7.97;;;5.43;;
8704;SDS011;4389;41.932;25.904;2023-09-19T00:49:12;11.67;;;6.10;;
8704;SDS011;4389;41.932;25.904;2023-09-19T00:51:40;9.53;;;5.90;;
8704;SDS011;4389;41.932;25.904;2023-09-19T00:54:11;10.87;;;6.63;;
8704;SDS011;4389;41.932;25.904;2023-09-19T00:56:44;7.87;;;5.40;;
8704;SDS011;4389;41.932;25.904;2023-09-19T00:59:14;10.63;;;5.70;;
8704;SDS011;4389;41.932;25.904;2023-09-19T01:01:41;9.87;;;4.93;;
8704;SDS011;4389;41.932;25.904;2023-09-19T01:04:11;5.27;;;4.53;;
8704;SDS011;4389;41.932;25.904;2023-09-19T01:06:38;8.40;;;5.27;;
8704;SDS011;4389;41.932;25.904;2023-09-19T01:09:05;6.20;;;4.60;;
8704;SDS011;4389;41.932;25.904;2023-09-19T01:11:35;7.30;;;4.30;;
8704;SDS011;4389;41.932;25.904;2023-09-19T01:14:11;8.07;;;4.70;;
8704;SDS011;4389;41.932;25.904;2023-09-19T01:16:45;8.87;;;4.70;;
8704;SDS011;4389;41.932;25.904;2023-09-19T01:19:24;5.67;;;4.70;;
8704;SDS011;4389;41.932;25.904;2023-09-19T01:22:06;5.87;;;4.80;;
8704;SDS011;4389;41.932;25.904;2023-09-19T01:24:51;6.73;;;4.60;;
8704;SDS011;4389;41.932;25.904;2023-09-19T01:27:40;6.20;;;4.70;;
8704;SDS011;4389;41.932;25.904;2023-09-19T01:30:31;6.37;;;4.93;;
8704;SDS011;4389;41.932;25.904;2023-09-19T01:33:02;7.00;;;5.17;;
8704;SDS011;4389;41.932;25.904;2023-09-19T01:35:31;6.40;;;4.93;;
8704;SDS011;4389;41.932;25.904;2023-09-19T01:37:59;35.90;;;6.33;;
8704;SDS011;4389;41.932;25.904;2023-09-19T01:40:26;6.07;;;4.43;;
8704;SDS011;4389;41.932;25.904;2023-09-19T01:42:54;5.03;;;4.50;;
8704;SDS011;4389;41.932;25.904;2023-09-19T01:45:26;7.23;;;4.57;;
8704;SDS011;4389;41.932;25.904;2023-09-19T01:48:03;7.23;;;4.97;;
8704;SDS011;4389;41.932;25.904;2023-09-19T01:50:41;5.60;;;4.83;;
8704;SDS011;4389;41.932;25.904;2023-09-19T01:53:14;6.73;;;5.07;;
8704;SDS011;4389;41.932;25.904;2023-09-19T01:55:47;11.03;;;4.90;;
8704;SDS011;4389;41.932;25.904;2023-09-19T01:58:17;5.33;;;4.63;;
8704;SDS011;4389;41.932;25.904;2023-09-19T02:00:49;6.00;;;5.40;;
8704;SDS011;4389;41.932;25.904;2023-09-19T02:03:18;5.77;;;4.73;;
8704;SDS011;4389;41.932;25.904;2023-09-19T02:05:48;14.43;;;5.80;;
8704;SDS011;4389;41.932;25.904;2023-09-19T02:08:17;5.87;;;5.10;;
8704;SDS011;4389;41.932;25.904;2023-09-19T02:10:44;7.30;;;4.67;;
8704;SDS011;4389;41.932;25.904;2023-09-19T02:13:14;8.17;;;5.07;;
8704;SDS011;4389;41.932;25.904;2023-09-19T02:15:44;10.20;;;5.50;;
8704;SDS011;4389;41.932;25.904;2023-09-19T02:18:12;12.53;;;5.50;;
8704;SDS011;4389;41.932;25.904;2023-09-19T02:20:39;11.70;;;6.60;;
8704;SDS011;4389;41.932;25.904;2023-09-19T02:23:06;15.70;;;5.50;;
8704;SDS011;4389;41.932;25.904;2023-09-19T02:25:34;7.30;;;5.13;;
8704;SDS011;4389;41.932;25.904;2023-09-19T02:28:03;6.43;;;5.00;;
8704;SDS011;4389;41.932;25.904;2023-09-19T02:30:30;6.07;;;5.47;;
8704;SDS011;4389;41.932;25.904;2023-09-19T02:32:58;9.13;;;5.60;;
8704;SDS011;4389;41.932;25.904;2023-09-19T02:35:28;7.60;;;6.00;;
8704;SDS011;4389;41.932;25.904;2023-09-19T02:37:58;5.50;;;4.97;;
8704;SDS011;4389;41.932;25.904;2023-09-19T02:40:25;9.03;;;5.47;;
8704;SDS011;4389;41.932;25.904;2023-09-19T02:42:53;5.80;;;5.23;;
8704;SDS011;4389;41.932;25.904;2023-09-19T02:45:23;7.43;;;5.20;;
8704;SDS011;4389;41.932;25.904;2023-09-19T02:47:51;6.80;;;5.37;;
8704;SDS011;4389;41.932;25.904;2023-09-19T02:50:18;8.23;;;5.43;;
8704;SDS011;4389;41.932;25.904;2023-09-19T02:52:46;5.87;;;5.27;;
8704;SDS011;4389;41.932;25.904;2023-09-19T02:55:14;7.13;;;5.80;;
8704;SDS011;4389;41.932;25.904;2023-09-19T02:57:45;8.13;;;5.73;;
8704;SDS011;4389;41.932;25.904;2023-09-19T03:00:13;7.33;;;6.07;;
8704;SDS011;4389;41.932;25.904;2023-09-19T03:02:40;7.23;;;5.90;;
8704;SDS011;4389;41.932;25.904;2023-09-19T03:05:08;10.97;;;6.50;;
8704;SDS011;4389;41.932;25.904;2023-09-19T03:07:36;9.03;;;5.87;;
8704;SDS011;4389;41.932;25.904;2023-09-19T03:10:05;7.40;;;5.73;;
8704;SDS011;4389;41.932;25.904;2023-09-19T03:12:33;15.47;;;7.20;;
8704;SDS011;4389;41.932;25.904;2023-09-19T03:15:00;8.10;;;5.87;;
8704;SDS011;4389;41.932;25.904;2023-09-19T03:17:28;7.30;;;6.17;;
8704;SDS011;4389;41.932;25.904;2023-09-19T03:19:54;8.23;;;5.93;;
8704;SDS011;4389;41.932;25.904;2023-09-19T03:22:22;8.17;;;6.80;;
8704;SDS011;4389;41.932;25.904;2023-09-19T03:24:49;7.33;;;6.43;;
8704;SDS011;4389;41.932;25.904;2023-09-19T03:27:18;9.73;;;6.03;;
8704;SDS011;4389;41.932;25.904;2023-09-19T03:29:45;11.90;;;9.57;;
8704;SDS011;4389;41.932;25.904;2023-09-19T03:32:12;10.67;;;8.13;;
8704;SDS011;4389;41.932;25.904;2023-09-19T03:34:40;6.93;;;5.97;;
8704;SDS011;4389;41.932;25.904;2023-09-19T03:37:08;13.17;;;6.30;;
8704;SDS011;4389;41.932;25.904;2023-09-19T03:39:35;14.33;;;6.63;;
8704;SDS011;4389;41.932;25.904;2023-09-19T03:42:02;9.00;;;6.20;;
8704;SDS011;4389;41.932;25.904;2023-09-19T03:44:31;7.33;;;5.73;;
8704;SDS011;4389;41.932;25.904;2023-09-19T03:46:58;10.13;;;6.37;;
8704;SDS011;4389;41.932;25.904;2023-09-19T03:49:25;21.20;;;7.07;;
8704;SDS011;4389;41.932;25.904;2023-09-19T03:51:53;10.53;;;5.83;;
8704;SDS011;4389;41.932;25.904;2023-09-19T03:54:19;7.50;;;5.37;;
8704;SDS011;4389;41.932;25.904;2023-09-19T03:56:46;10.23;;;5.67;;
8704;SDS011;4389;41.932;25.904;2023-09-19T03:59:13;182.03;;;17.27;;
8704;SDS011;4389;41.932;25.904;2023-09-19T04:01:41;8.77;;;6.33;;
8704;SDS011;4389;41.932;25.904;2023-09-19T04:04:08;8.40;;;6.63;;
8704;SDS011;4389;41.932;25.904;2023-09-19T04:06:35;11.07;;;5.63;;
8704;SDS011;4389;41.932;25.904;2023-09-19T04:09:02;21.43;;;6.93;;
8704;SDS011;4389;41.932;25.904;2023-09-19T04:11:32;8.10;;;5.37;;
8704;SDS011;4389;41.932;25.904;2023-09-19T04:13:58;7.73;;;6.50;;
8704;SDS011;4389;41.932;25.904;2023-09-19T04:16:25;9.07;;;5.57;;
8704;SDS011;4389;41.932;25.904;2023-09-19T04:18:53;6.30;;;5.20;;
8704;SDS011;4389;41.932;25.904;2023-09-19T04:21:20;7.03;;;5.60;;
8704;SDS011;4389;41.932;25.904;2023-09-19T04:23:47;52.23;;;8.43;;
8704;SDS011;4389;41.932;25.904;2023-09-19T04:26:14;7.03;;;5.80;;
8704;SDS011;4389;41.932;25.904;2023-09-19T04:28:42;12.70;;;6.10;;
8704;SDS011;4389;41.932;25.904;2023-09-19T04:31:09;13.67;;;6.50;;
8704;SDS011;4389;41.932;25.904;2023-09-19T04:33:36;7.23;;;6.13;;
8704;SDS011;4389;41.932;25.904;2023-09-19T04:36:05;9.13;;;6.53;;
8704;SDS011;4389;41.932;25.904;2023-09-19T04:38:32;8.73;;;6.80;;
8704;SDS011;4389;41.932;25.904;2023-09-19T04:40:59;12.43;;;7.23;;
8704;SDS011;4389;41.932;25.904;2023-09-19T04:43:26;7.53;;;6.63;;
8704;SDS011;4389;41.932;25.904;2023-09-19T04:45:53;14.43;;;6.70;;
8704;SDS011;4389;41.932;25.904;2023-09-19T04:48:21;14.80;;;7.80;;
8704;SDS011;4389;41.932;25.904;2023-09-19T04:50:49;11.40;;;7.80;;
8704;SDS011;4389;41.932;25.904;2023-09-19T04:53:18;39.77;;;8.23;;
8704;SDS011;4389;41.932;25.904;2023-09-19T04:55:49;9.83;;;6.97;;
8704;SDS011;4389;41.932;25.904;2023-09-19T04:58:17;13.73;;;7.37;;
8704;SDS011;4389;41.932;25.904;2023-09-19T05:00:44;11.47;;;7.80;;
8704;SDS011;4389;41.932;25.904;2023-09-19T05:03:11;11.63;;;7.13;;
8704;SDS011;4389;41.932;25.904;2023-09-19T05:05:38;13.80;;;7.37;;
8704;SDS011;4389;41.932;25.904;2023-09-19T05:08:06;11.77;;;7.60;;
8704;SDS011;4389;41.932;25.904;2023-09-19T05:10:36;15.00;;;7.93;;
8704;SDS011;4389;41.932;25.904;2023-09-19T05:13:03;13.37;;;7.63;;
8704;SDS011;4389;41.932;25.904;2023-09-19T05:15:30;8.43;;;7.40;;
8704;SDS011;4389;41.932;25.904;2023-09-19T05:17:57;10.10;;;8.03;;
8704;SDS011;4389;41.932;25.904;2023-09-19T05:20:24;9.27;;;7.23;;
8704;SDS011;4389;41.932;25.904;2023-09-19T05:22:58;18.97;;;9.73;;
8704;SDS011;4389;41.932;25.904;2023-09-19T05:25:27;9.53;;;8.00;;
8704;SDS011;4389;41.932;25.904;2023-09-19T05:27:57;11.67;;;7.43;;
8704;SDS011;4389;41.932;25.904;2023-09-19T05:30:25;12.07;;;8.47;;
8704;SDS011;4389;41.932;25.904;2023-09-19T05:32:54;22.50;;;10.30;;
8704;SDS011;4389;41.932;25.904;2023-09-19T05:35:21;13.90;;;8.87;;
8704;SDS011;4389;41.932;25.904;2023-09-19T05:37:48;14.53;;;9.30;;
8704;SDS011;4389;41.932;25.904;2023-09-19T05:40:16;9.73;;;7.73;;
8704;SDS011;4389;41.932;25.904;2023-09-19T05:42:43;11.13;;;8.10;;
8704;SDS011;4389;41.932;25.904;2023-09-19T05:45:12;11.93;;;9.30;;
8704;SDS011;4389;41.932;25.904;2023-09-19T05:47:44;14.13;;;8.30;;
8704;SDS011;4389;41.932;25.904;2023-09-19T05:50:12;15.20;;;8.27;;
8704;SDS011;4389;41.932;25.904;2023-09-19T05:52:40;13.40;;;8.50;;
8704;SDS011;4389;41.932;25.904;2023-09-19T05:55:09;17.07;;;8.00;;
8704;SDS011;4389;41.932;25.904;2023-09-19T05:57:36;12.93;;;8.87;;
8704;SDS011;4389;41.932;25.904;2023-09-19T06:00:04;13.80;;;7.57;;
8704;SDS011;4389;41.932;25.904;2023-09-19T06:02:37;6.90;;;6.20;;
8704;SDS011;4389;41.932;25.904;2023-09-19T06:05:04;9.67;;;6.20;;
8704;SDS011;4389;41.932;25.904;2023-09-19T06:07:35;8.07;;;6.47;;
8704;SDS011;4389;41.932;25.904;2023-09-19T06:10:02;9.20;;;6.93;;
8704;SDS011;4389;41.932;25.904;2023-09-19T06:12:32;13.27;;;7.37;;
8704;SDS011;4389;41.932;25.904;2023-09-19T06:15:02;8.93;;;7.33;;
8704;SDS011;4389;41.932;25.904;2023-09-19T06:17:31;12.87;;;7.60;;
8704;SDS011;4389;41.932;25.904;2023-09-19T06:19:59;9.90;;;8.37;;
8704;SDS011;4389;41.932;25.904;2023-09-19T06:22:26;9.00;;;7.43;;
8704;SDS011;4389;41.932;25.904;2023-09-19T06:24:54;8.80;;;7.90;;
8704;SDS011;4389;41.932;25.904;2023-09-19T06:27:21;7.20;;;6.50;;
8704;SDS011;4389;41.932;25.904;2023-09-19T06:29:48;10.13;;;6.97;;
8704;SDS011;4389;41.932;25.904;2023-09-19T06:32:15;7.97;;;6.33;;
8704;SDS011;4389;41.932;25.904;2023-09-19T06:34:42;7.43;;;6.60;;
8704;SDS011;4389;41.932;25.904;2023-09-19T06:37:13;11.33;;;7.33;;
8704;SDS011;4389;41.932;25.904;2023-09-19T06:39:39;8.43;;;5.37;;
8704;SDS011;4389;41.932;25.904;2023-09-19T06:42:07;8.70;;;7.20;;
8704;SDS011;4389;41.932;25.904;2023-09-19T06:44:34;16.30;;;9.63;;
8704;SDS011;4389;41.932;25.904;2023-09-19T06:47:01;11.00;;;8.63;;
8704;SDS011;4389;41.932;25.904;2023-09-19T06:49:28;15.13;;;7.87;;
8704;SDS011;4389;41.932;25.904;2023-09-19T06:51:56;9.80;;;7.20;;
8704;SDS011;4389;41.932;25.904;2023-09-19T06:54:24;7.30;;;6.43;;
8704;SDS011;4389;41.932;25.904;2023-09-19T06:56:56;8.43;;;6.83;;
8704;SDS011;4389;41.932;25.904;2023-09-19T06:59:23;7.83;;;5.77;;
8704;SDS011;4389;41.932;25.904;2023-09-19T07:01:49;8.80;;;6.30;;
8704;SDS011;4389;41.932;25.904;2023-09-19T07:04:17;13.40;;;6.10;;
8704;SDS011;4389;41.932;25.904;2023-09-19T07:06:44;13.53;;;5.53;;
8704;SDS011;4389;41.932;25.904;2023-09-19T07:09:16;6.57;;;4.50;;
8704;SDS011;4389;41.932;25.904;2023-09-19T07:11:46;7.30;;;4.90;;
8704;SDS011;4389;41.932;25.904;2023-09-19T07:14:13;9.43;;;4.97;;
8704;SDS011;4389;41.932;25.904;2023-09-19T07:16:40;6.07;;;4.87;;
8704;SDS011;4389;41.932;25.904;2023-09-19T07:19:09;6.67;;;5.30;;
8704;SDS011;4389;41.932;25.904;2023-09-19T07:21:36;10.27;;;4.83;;
8704;SDS011;4389;41.932;25.904;2023-09-19T07:24:04;6.23;;;4.60;;
8704;SDS011;4389;41.932;25.904;2023-09-19T07:26:33;7.27;;;5.20;;
8704;SDS011;4389;41.932;25.904;2023-09-19T07:29:01;8.37;;;4.73;;
8704;SDS011;4389;41.932;25.904;2023-09-19T07:31:28;6.00;;;4.27;;
8704;SDS011;4389;41.932;25.904;2023-09-19T07:33:56;6.43;;;5.20;;
8704;SDS011;4389;41.932;25.904;2023-09-19T07:36:22;8.03;;;4.60;;
8704;SDS011;4389;41.932;25.904;2023-09-19T07:38:49;6.20;;;5.10;;
8704;SDS011;4389;41.932;25.904;2023-09-19T07:41:16;6.00;;;5.00;;
8704;SDS011;4389;41.932;25.904;2023-09-19T07:43:43;7.63;;;5.20;;
8704;SDS011;4389;41.932;25.904;2023-09-19T07:46:11;6.60;;;4.53;;
8704;SDS011;4389;41.932;25.904;2023-09-19T07:48:38;7.00;;;3.97;;
8704;SDS011;4389;41.932;25.904;2023-09-19T07:51:06;6.20;;;4.63;;
8704;SDS011;4389;41.932;25.904;2023-09-19T07:53:34;5.37;;;4.00;;
8704;SDS011;4389;41.932;25.904;2023-09-19T07:56:04;13.07;;;4.30;;
8704;SDS011;4389;41.932;25.904;2023-09-19T07:58:31;5.63;;;3.90;;
8704;SDS011;4389;41.932;25.904;2023-09-19T08:01:02;6.20;;;4.40;;
8704;SDS011;4389;41.932;25.904;2023-09-19T08:03:31;7.10;;;3.80;;
8704;SDS011;4389;41.932;25.904;2023-09-19T08:05:58;4.20;;;3.63;;
8704;SDS011;4389;41.932;25.904;2023-09-19T08:08:25;6.90;;;3.70;;
8704;SDS011;4389;41.932;25.904;2023-09-19T08:10:53;7.63;;;4.43;;
8704;SDS011;4389;41.932;25.904;2023-09-19T08:13:21;4.17;;;3.63;;
8704;SDS011;4389;41.932;25.904;2023-09-19T08:15:49;5.47;;;4.67;;
8704;SDS011;4389;41.932;25.904;2023-09-19T08:18:18;5.40;;;3.13;;
8704;SDS011;4389;41.932;25.904;2023-09-19T08:20:50;4.43;;;3.40;;
8704;SDS011;4389;41.932;25.904;2023-09-19T08:23:17;7.83;;;4.77;;
8704;SDS011;4389;41.932;25.904;2023-09-19T08:25:46;3.80;;;2.80;;
8704;SDS011;4389;41.932;25.904;2023-09-19T08:28:13;8.40;;;3.00;;
8704;SDS011;4389;41.932;25.904;2023-09-19T08:30:44;8.27;;;3.40;;
8704;SDS011;4389;41.932;25.904;2023-09-19T08:33:11;6.30;;;2.83;;
8704;SDS011;4389;41.932;25.904;2023-09-19T08:35:40;3.87;;;2.50;;
8704;SDS011;4389;41.932;25.904;2023-09-19T08:38:09;5.23;;;4.20;;
8704;SDS011;4389;41.932;25.904;2023-09-19T08:40:37;10.53;;;3.13;;
8704;SDS011;4389;41.932;25.904;2023-09-19T08:43:05;5.47;;;3.30;;
8704;SDS011;4389;41.932;25.904;2023-09-19T08:45:32;4.67;;;3.47;;
8704;SDS011;4389;41.932;25.904;2023-09-19T08:48:00;7.23;;;3.50;;
8704;SDS011;4389;41.932;25.904;2023-09-19T08:50:43;4.37;;;3.70;;
8704;SDS011;4389;41.932;25.904;2023-09-19T08:53:15;5.00;;;3.13;;
8704;SDS011;4389;41.932;25.904;2023-09-19T08:55:53;5.67;;;4.23;;
8704;SDS011;4389;41.932;25.904;2023-09-19T08:58:21;5.77;;;3.73;;
8704;SDS011;4389;41.932;25.904;2023-09-19T09:00:54;6.77;;;3.60;;
8704;SDS011;4389;41.932;25.904;2023-09-19T09:03:23;8.37;;;4.57;;
8704;SDS011;4389;41.932;25.904;2023-09-19T09:05:52;9.00;;;4.13;;
8704;SDS011;4389;41.932;25.904;2023-09-19T09:08:20;7.95;;;4.35;;
8704;SDS011;4389;41.932;25.904;2023-09-19T09:10:48;9.57;;;4.50;;
8704;SDS011;4389;41.932;25.904;2023-09-19T09:13:16;8.85;;;4.18;;
8704;SDS011;4389;41.932;25.904;2023-09-19T09:15:43;6.00;;;3.53;;
8704;SDS011;4389;41.932;25.904;2023-09-19T09:18:10;7.30;;;3.92;;
8704;SDS011;4389;41.932;25.904;2023-09-19T09:20:38;6.63;;;3.42;;
8704;SDS011;4389;41.932;25.904;2023-09-19T09:23:05;4.93;;;2.83;;
8704;SDS011;4389;41.932;25.904;2023-09-19T09:25:49;21.87;;;5.20;;
8704;SDS011;4389;41.932;25.904;2023-09-19T09:28:20;6.37;;;3.50;;
8704;SDS011;4389;41.932;25.904;2023-09-19T09:30:48;5.30;;;3.27;;
8704;SDS011;4389;41.932;25.904;2023-09-19T09:33:16;4.97;;;2.93;;
8704;SDS011;4389;41.932;25.904;2023-09-19T09:35:50;6.20;;;3.27;;
8704;SDS011;4389;41.932;25.904;2023-09-19T09:38:22;5.83;;;2.90;;
8704;SDS011;4389;41.932;25.904;2023-09-19T09:40:54;5.70;;;3.27;;
8704;SDS011;4389;41.932;25.904;2023-09-19T09:43:27;10.33;;;4.10;;
8704;SDS011;4389;41.932;25.904;2023-09-19T09:46:09;7.27;;;4.50;;
8704;SDS011;4389;41.932;25.904;2023-09-19T09:48:58;4.73;;;3.20;;
8704;SDS011;4389;41.932;25.904;2023-09-19T09:51:50;5.40;;;3.33;;
8704;SDS011;4389;41.932;25.904;2023-09-19T09:54:24;9.65;;;4.28;;
8704;SDS011;4389;41.932;25.904;2023-09-19T09:57:00;6.38;;;4.18;;
8704;SDS011;4389;41.932;25.904;2023-09-19T09:59:45;7.93;;;3.80;;
8704;SDS011;4389;41.932;25.904;2023-09-19T10:02:15;10.35;;;4.95;;
8704;SDS011;4389;41.932;25.904;2023-09-19T10:04:48;4.20;;;3.17;;
8704;SDS011;4389;41.932;25.904;2023-09-19T10:07:24;11.85;;;3.45;;
8704;SDS011;4389;41.932;25.904;2023-09-19T10:09:54;5.32;;;3.35;;
8704;SDS011;4389;41.932;25.904;2023-09-19T10:12:31;12.45;;;3.72;;
8704;SDS011;4389;41.932;25.904;2023-09-19T10:14:59;7.20;;;3.40;;
8704;SDS011;4389;41.932;25.904;2023-09-19T10:17:29;3.90;;;3.35;;
8704;SDS011;4389;41.932;25.904;2023-09-19T10:19:59;3.92;;;2.80;;
8704;SDS011;4389;41.932;25.904;2023-09-19T10:22:34;4.30;;;2.85;;
8704;SDS011;4389;41.932;25.904;2023-09-19T10:25:02;7.82;;;2.95;;
8704;SDS011;4389;41.932;25.904;2023-09-19T10:27:35;4.70;;;2.67;;
8704;SDS011;4389;41.932;25.904;2023-09-19T10:30:05;6.65;;;3.10;;
8704;SDS011;4389;41.932;25.904;2023-09-19T10:32:35;4.18;;;3.63;;
8704;SDS011;4389;41.932;25.904;2023-09-19T10:35:06;4.00;;;3.20;;
8704;SDS011;4389;41.932;25.904;2023-09-19T10:37:34;4.95;;;2.90;;
8704;SDS011;4389;41.932;25.904;2023-09-19T10:40:04;8.00;;;4.47;;
8704;SDS011;4389;41.932;25.904;2023-09-19T10:42:35;7.18;;;3.72;;
8704;SDS011;4389;41.932;25.904;2023-09-19T10:45:05;4.82;;;2.92;;
8704;SDS011;4389;41.932;25.904;2023-09-19T10:47:38;3.92;;;2.88;;
8704;SDS011;4389;41.932;25.904;2023-09-19T10:50:05;5.95;;;4.18;;
8704;SDS011;4389;41.932;25.904;2023-09-19T10:55:07;3.15;;;2.63;;
8704;SDS011;4389;41.932;25.904;2023-09-19T10:57:37;7.55;;;2.65;;
8704;SDS011;4389;41.932;25.904;2023-09-19T11:00:05;3.85;;;2.95;;
8704;SDS011;4389;41.932;25.904;2023-09-19T11:06:01;4.40;;;3.03;;
8704;SDS011;4389;41.932;25.904;2023-09-19T11:11:48;3.67;;;2.60;;
8704;SDS011;4389;41.932;25.904;2023-09-19T11:14:30;6.05;;;3.17;;
8704;SDS011;4389;41.932;25.904;2023-09-19T11:25:51;7.72;;;3.22;;
8704;SDS011;4389;41.932;25.904;2023-09-19T11:28:32;5.82;;;2.75;;
8704;SDS011;4389;41.932;25.904;2023-09-19T11:34:38;4.05;;;2.67;;
8704;SDS011;4389;41.932;25.904;2023-09-19T11:40:35;5.35;;;2.85;;
8704;SDS011;4389;41.932;25.904;2023-09-19T11:46:05;7.65;;;4.43;;
8704;SDS011;4389;41.932;25.904;2023-09-19T11:48:37;5.43;;;3.03;;
8704;SDS011;4389;41.932;25.904;2023-09-19T11:51:14;6.60;;;3.00;;
8704;SDS011;4389;41.932;25.904;2023-09-19T11:53:47;3.85;;;2.65;;
8704;SDS011;4389;41.932;25.904;2023-09-19T11:56:15;6.95;;;2.50;;
8704;SDS011;4389;41.932;25.904;2023-09-19T11:58:44;7.50;;;3.45;;
8704;SDS011;4389;41.932;25.904;2023-09-19T12:01:21;6.95;;;2.83;;
8704;SDS011;4389;41.932;25.904;2023-09-19T12:03:52;4.88;;;4.28;;
8704;SDS011;4389;41.932;25.904;2023-09-19T12:06:24;3.75;;;3.30;;
8704;SDS011;4389;41.932;25.904;2023-09-19T12:08:52;5.65;;;2.47;;
8704;SDS011;4389;41.932;25.904;2023-09-19T12:11:21;6.07;;;2.80;;
8704;SDS011;4389;41.932;25.904;2023-09-19T12:13:49;4.78;;;2.88;;
8704;SDS011;4389;41.932;25.904;2023-09-19T12:16:18;7.88;;;3.05;;
8704;SDS011;4389;41.932;25.904;2023-09-19T12:18:48;4.45;;;2.80;;
8704;SDS011;4389;41.932;25.904;2023-09-19T12:21:27;21.60;;;4.25;;
8704;SDS011;4389;41.932;25.904;2023-09-19T12:24:03;6.38;;;2.90;;
8704;SDS011;4389;41.932;25.904;2023-09-19T12:26:37;3.78;;;2.63;;
8704;SDS011;4389;41.932;25.904;2023-09-19T12:29:11;8.07;;;3.15;;
8704;SDS011;4389;41.932;25.904;2023-09-19T12:31:47;6.35;;;3.10;;
8704;SDS011;4389;41.932;25.904;2023-09-19T12:34:19;3.28;;;2.50;;
8704;SDS011;4389;41.932;25.904;2023-09-19T12:36:49;4.20;;;3.15;;
8704;SDS011;4389;41.932;25.904;2023-09-19T12:39:29;3.70;;;2.80;;
8704;SDS011;4389;41.932;25.904;2023-09-19T12:41:56;4.80;;;3.03;;
8704;SDS011;4389;41.932;25.904;2023-09-19T12:44:23;7.93;;;2.45;;
8704;SDS011;4389;41.932;25.904;2023-09-19T12:46:51;3.65;;;2.50;;
8704;SDS011;4389;41.932;25.904;2023-09-19T12:49:20;9.35;;;3.20;;
8704;SDS011;4389;41.932;25.904;2023-09-19T12:51:49;5.60;;;2.80;;
8704;SDS011;4389;41.932;25.904;2023-09-19T12:54:21;8.18;;;2.85;;
8704;SDS011;4389;41.932;25.904;2023-09-19T12:56:51;3.80;;;2.80;;
8704;SDS011;4389;41.932;25.904;2023-09-19T12:59:28;5.18;;;3.00;;
8704;SDS011;4389;41.932;25.904;2023-09-19T13:02:03;5.75;;;3.30;;
8704;SDS011;4389;41.932;25.904;2023-09-19T13:04:32;6.32;;;2.67;;
8704;SDS011;4389;41.932;25.904;2023-09-19T13:07:06;7.97;;;3.25;;
8704;SDS011;4389;41.932;25.904;2023-09-19T13:09:34;3.78;;;2.80;;
8704;SDS011;4389;41.932;25.904;2023-09-19T13:12:01;5.65;;;3.25;;
8704;SDS011;4389;41.932;25.904;2023-09-19T13:14:29;5.38;;;3.15;;
8704;SDS011;4389;41.932;25.904;2023-09-19T13:16:59;3.83;;;3.10;;
8704;SDS011;4389;41.932;25.904;2023-09-19T13:19:41;3.20;;;2.50;;
8704;SDS011;4389;41.932;25.904;2023-09-19T13:25:08;4.72;;;2.97;;
8704;SDS011;4389;41.932;25.904;2023-09-19T13:27:39;16.48;;;4.10;;
8704;SDS011;4389;41.932;25.904;2023-09-19T13:30:07;3.75;;;3.05;;
8704;SDS011;4389;41.932;25.904;2023-09-19T13:32:34;4.35;;;3.10;;
8704;SDS011;4389;41.932;25.904;2023-09-19T13:35:02;6.45;;;3.42;;
8704;SDS011;4389;41.932;25.904;2023-09-19T13:37:32;15.43;;;3.90;;
8704;SDS011;4389;41.932;25.904;2023-09-19T13:40:01;5.30;;;3.13;;
8704;SDS011;4389;41.932;25.904;2023-09-19T13:42:30;9.48;;;3.30;;
8704;SDS011;4389;41.932;25.904;2023-09-19T13:44:57;6.22;;;3.47;;
8704;SDS011;4389;41.932;25.904;2023-09-19T13:47:24;5.68;;;3.50;;
8704;SDS011;4389;41.932;25.904;2023-09-19T13:49:52;6.28;;;2.97;;
8704;SDS011;4389;41.932;25.904;2023-09-19T13:52:19;6.28;;;3.20;;
8704;SDS011;4389;41.932;25.904;2023-09-19T13:54:47;3.20;;;2.70;;
8704;SDS011;4389;41.932;25.904;2023-09-19T13:57:15;8.20;;;3.40;;
8704;SDS011;4389;41.932;25.904;2023-09-19T13:59:42;8.15;;;3.40;;
8704;SDS011;4389;41.932;25.904;2023-09-19T14:02:09;9.75;;;3.60;;
8704;SDS011;4389;41.932;25.904;2023-09-19T14:04:35;7.65;;;3.67;;
8704;SDS011;4389;41.932;25.904;2023-09-19T14:07:02;9.90;;;2.72;;
8704;SDS011;4389;41.932;25.904;2023-09-19T14:09:29;3.83;;;2.85;;
8704;SDS011;4389;41.932;25.904;2023-09-19T14:11:56;9.02;;;3.35;;
8704;SDS011;4389;41.932;25.904;2023-09-19T14:14:24;13.85;;;3.05;;
8704;SDS011;4389;41.932;25.904;2023-09-19T14:16:51;5.97;;;3.28;;
8704;SDS011;4389;41.932;25.904;2023-09-19T14:19:18;8.85;;;3.50;;
8704;SDS011;4389;41.932;25.904;2023-09-19T14:21:45;11.15;;;3.65;;
8704;SDS011;4389;41.932;25.904;2023-09-19T14:24:16;5.32;;;3.75;;
8704;SDS011;4389;41.932;25.904;2023-09-19T14:26:43;5.03;;;3.15;;
8704;SDS011;4389;41.932;25.904;2023-09-19T14:29:10;12.60;;;3.25;;
8704;SDS011;4389;41.932;25.904;2023-09-19T14:31:38;5.00;;;3.88;;
8704;SDS011;4389;41.932;25.904;2023-09-19T14:34:06;4.47;;;3.15;;
8704;SDS011;4389;41.932;25.904;2023-09-19T14:36:35;3.28;;;2.90;;
8704;SDS011;4389;41.932;25.904;2023-09-19T14:39:03;3.05;;;2.60;;
8704;SDS011;4389;41.932;25.904;2023-09-19T14:41:31;6.20;;;3.25;;
8704;SDS011;4389;41.932;25.904;2023-09-19T14:43:58;7.80;;;3.17;;
8704;SDS011;4389;41.932;25.904;2023-09-19T14:46:24;4.45;;;3.35;;
8704;SDS011;4389;41.932;25.904;2023-09-19T14:48:53;19.05;;;3.58;;
8704;SDS011;4389;41.932;25.904;2023-09-19T14:51:19;8.52;;;3.67;;
8704;SDS011;4389;41.932;25.904;2023-09-19T14:53:47;8.57;;;3.33;;
8704;SDS011;4389;41.932;25.904;2023-09-19T14:56:14;5.88;;;2.95;;
8704;SDS011;4389;41.932;25.904;2023-09-19T14:58:43;16.65;;;3.85;;
8704;SDS011;4389;41.932;25.904;2023-09-19T15:01:12;8.18;;;3.17;;
8704;SDS011;4389;41.932;25.904;2023-09-19T15:03:40;5.72;;;3.03;;
8704;SDS011;4389;41.932;25.904;2023-09-19T15:06:10;13.88;;;4.15;;
8704;SDS011;4389;41.932;25.904;2023-09-19T15:08:40;5.68;;;3.00;;
8704;SDS011;4389;41.932;25.904;2023-09-19T15:11:11;10.95;;;2.83;;
8704;SDS011;4389;41.932;25.904;2023-09-19T15:13:38;10.57;;;3.33;;
8704;SDS011;4389;41.932;25.904;2023-09-19T15:16:05;7.35;;;3.47;;
8704;SDS011;4389;41.932;25.904;2023-09-19T15:18:34;5.30;;;3.70;;
8704;SDS011;4389;41.932;25.904;2023-09-19T15:21:02;5.32;;;3.50;;
8704;SDS011;4389;41.932;25.904;2023-09-19T15:23:34;7.22;;;3.42;;
8704;SDS011;4389;41.932;25.904;2023-09-19T15:26:02;16.63;;;5.20;;
8704;SDS011;4389;41.932;25.904;2023-09-19T15:28:29;6.30;;;3.60;;
8704;SDS011;4389;41.932;25.904;2023-09-19T15:30:57;6.90;;;3.72;;
8704;SDS011;4389;41.932;25.904;2023-09-19T15:33:25;8.52;;;4.10;;
8704;SDS011;4389;41.932;25.904;2023-09-19T15:35:59;10.65;;;4.13;;
8704;SDS011;4389;41.932;25.904;2023-09-19T15:38:27;21.83;;;5.70;;
8704;SDS011;4389;41.932;25.904;2023-09-19T15:40:56;9.30;;;4.07;;
8704;SDS011;4389;41.932;25.904;2023-09-19T15:43:22;9.45;;;5.00;;